Time;durP1;ratioP1;P1;durP2;ratioP2;P2;SDS_P1;SDS_P2;PMS_P1;PMS_P2;Temp;Humidity;BMP_temperature;BMP_pressure;BME280_temperature;BME280_humidity;BME280_pressure;Samples;Min_cycle;Max_cycle;Signal;HPM_P1;HPM_P2
2023/01/18 00:01:53;;;;;;;7.00;4.80;;;5.00;99.90;;;;;;4948893;28;20529;-75
2023/01/18 00:04:18;;;;;;;10.00;6.10;;;5.10;99.90;;;;;;4947960;28;21004;-75
2023/01/18 00:06:44;;;;;;;7.50;5.67;;;5.00;99.90;;;;;;4952879;28;20192;-74
2023/01/18 00:09:09;;;;;;;8.23;5.00;;;5.00;99.90;;;;;;4951335;28;21540;-74
2023/01/18 00:11:35;;;;;;;6.70;5.30;;;5.00;99.90;;;;;;4952711;28;20752;-74
2023/01/18 00:14:01;;;;;;;9.60;5.23;;;5.00;99.90;;;;;;4956049;28;20232;-74
2023/01/18 00:16:29;;;;;;;11.07;5.70;;;4.90;99.90;;;;;;4954193;28;20198;-74
2023/01/18 00:18:56;;;;;;;7.60;5.17;;;5.00;99.90;;;;;;4949545;28;20456;-75
2023/01/18 00:21:23;;;;;;;8.10;5.30;;;4.90;99.90;;;;;;4957877;28;20945;-75
2023/01/18 00:23:50;;;;;;;10.30;5.87;;;5.00;99.90;;;;;;4957548;28;20421;-75
2023/01/18 00:26:15;;;;;;;7.77;5.67;;;4.90;99.90;;;;;;4958425;28;20434;-75
2023/01/18 00:28:41;;;;;;;9.33;5.40;;;5.00;99.90;;;;;;4949963;28;20442;-76
2023/01/18 00:31:15;;;;;;;9.90;5.53;;;5.00;99.90;;;;;;4948203;28;20199;-76
2023/01/18 00:33:43;;;;;;;10.73;5.90;;;5.00;99.90;;;;;;4945968;28;20210;-75
2023/01/18 00:36:08;;;;;;;11.50;5.93;;;5.00;99.90;;;;;;4951579;28;20457;-75
2023/01/18 00:38:34;;;;;;;9.50;6.23;;;5.00;99.90;;;;;;4942859;28;20985;-76
2023/01/18 00:41:00;;;;;;;10.30;6.10;;;5.00;99.90;;;;;;4949637;28;20678;-75
2023/01/18 00:43:38;;;;;;;7.83;5.60;;;5.00;99.90;;;;;;4947771;28;20214;-75
2023/01/18 00:46:08;;;;;;;18.70;11.20;;;5.00;99.90;;;;;;4945474;28;20195;-75
2023/01/18 00:48:34;;;;;;;23.10;11.80;;;5.00;99.90;;;;;;4952636;28;20466;-75
2023/01/18 00:51:00;;;;;;;10.70;6.40;;;5.00;99.90;;;;;;4946054;28;20468;-76
2023/01/18 00:53:26;;;;;;;8.20;6.37;;;5.00;99.90;;;;;;4950593;28;20937;-76
2023/01/18 00:55:52;;;;;;;9.00;6.30;;;4.90;99.90;;;;;;4951928;28;21183;-74
2023/01/18 00:58:18;;;;;;;10.20;6.17;;;5.00;99.90;;;;;;4951662;28;20504;-75
2023/01/18 01:00:43;;;;;;;8.27;5.80;;;4.90;99.90;;;;;;4950205;28;20207;-74
2023/01/18 01:03:09;;;;;;;11.40;7.17;;;4.90;99.90;;;;;;4950824;28;20193;-74
2023/01/18 01:08:22;;;;;;;7.90;5.53;;;4.90;99.90;;;;;;4954373;28;20197;-73
2023/01/18 01:10:50;;;;;;;10.60;6.10;;;4.80;99.90;;;;;;4952478;28;21455;-73
2023/01/18 01:27:01;;;;;;;10.83;6.30;;;4.80;99.90;;;;;;4953580;28;20811;-73
2023/01/18 01:29:27;;;;;;;10.00;6.10;;;4.80;99.90;;;;;;4949598;28;20449;-72
2023/01/18 01:31:52;;;;;;;10.13;6.33;;;4.80;99.90;;;;;;4948407;28;20324;-73
2023/01/18 01:34:18;;;;;;;8.40;5.57;;;4.80;99.90;;;;;;4948855;28;20199;-74
2023/01/18 01:36:44;;;;;;;8.00;5.73;;;4.80;99.90;;;;;;4948815;28;20694;-74
2023/01/18 01:39:09;;;;;;;8.33;5.20;;;4.80;99.90;;;;;;4950426;28;20183;-73
2023/01/18 01:41:36;;;;;;;9.67;6.60;;;4.80;99.90;;;;;;4946216;28;20268;-74
2023/01/18 01:44:28;;;;;;;8.93;4.90;;;4.80;99.90;;;;;;4945824;28;20572;-74
2023/01/18 01:47:28;;;;;;;6.37;4.90;;;4.90;99.90;;;;;;4955196;28;20882;-74
2023/01/18 01:50:02;;;;;;;8.07;5.47;;;4.80;99.90;;;;;;4947668;28;20491;-73
2023/01/18 01:52:35;;;;;;;8.40;5.00;;;4.80;99.90;;;;;;4954595;28;20444;-74
2023/01/18 01:55:05;;;;;;;8.80;5.80;;;4.80;99.90;;;;;;4953202;28;20508;-74
2023/01/18 01:57:45;;;;;;;7.10;5.60;;;4.90;99.90;;;;;;4943344;28;20482;-74
2023/01/18 02:00:15;;;;;;;8.93;4.90;;;4.90;99.90;;;;;;4947639;28;20469;-74
2023/01/18 02:02:43;;;;;;;7.30;5.43;;;4.90;99.90;;;;;;4945804;28;20489;-75
2023/01/18 02:05:12;;;;;;;8.43;5.13;;;4.90;99.90;;;;;;4952902;28;20434;-74
2023/01/18 02:07:38;;;;;;;7.53;6.00;;;4.90;99.90;;;;;;4952208;28;20508;-74
2023/01/18 02:10:04;;;;;;;6.87;5.40;;;4.90;99.90;;;;;;4957037;28;20495;-74
2023/01/18 02:12:31;;;;;;;8.30;5.37;;;4.90;99.90;;;;;;4949831;28;20535;-73
2023/01/18 02:14:58;;;;;;;7.97;6.03;;;4.90;99.90;;;;;;4948899;28;20446;-74
2023/01/18 02:17:44;;;;;;;7.07;5.53;;;4.90;99.90;;;;;;4955775;28;20477;-73
2023/01/18 02:20:18;;;;;;;12.97;6.07;;;4.90;99.90;;;;;;4925439;28;20462;-73
2023/01/18 02:22:46;;;;;;;10.03;6.50;;;4.90;99.90;;;;;;4953712;28;21021;-73
2023/01/18 02:25:30;;;;;;;11.00;6.37;;;4.80;99.90;;;;;;4950123;28;20452;-74
2023/01/18 02:28:16;;;;;;;9.73;6.20;;;4.80;99.90;;;;;;4956896;28;20434;-74
2023/01/18 02:31:16;;;;;;;9.67;5.90;;;4.80;99.90;;;;;;4948344;28;20469;-74
2023/01/18 02:34:01;;;;;;;11.53;5.23;;;4.80;99.90;;;;;;4953388;28;20458;-74
2023/01/18 02:36:56;;;;;;;8.97;6.70;;;4.70;99.90;;;;;;4953585;28;20505;-74
2023/01/18 02:39:38;;;;;;;10.63;6.17;;;4.70;99.90;;;;;;4949179;28;20434;-73
2023/01/18 02:47:54;;;;;;;10.67;7.00;;;4.70;99.90;;;;;;4948928;28;20887;-74
2023/01/18 02:50:26;;;;;;;8.50;6.27;;;4.80;99.90;;;;;;4956647;28;20493;-75
2023/01/18 02:52:52;;;;;;;12.33;8.00;;;4.80;99.90;;;;;;4952256;28;20564;-73
2023/01/18 02:55:21;;;;;;;11.00;7.80;;;4.80;99.90;;;;;;4954414;28;20460;-74
2023/01/18 02:57:47;;;;;;;10.47;6.93;;;4.80;99.90;;;;;;4949610;28;20500;-75
2023/01/18 03:00:17;;;;;;;10.83;7.50;;;4.80;99.90;;;;;;4950451;28;20497;-75
2023/01/18 03:02:46;;;;;;;8.60;6.83;;;4.80;99.90;;;;;;4947220;28;20457;-75
2023/01/18 03:05:12;;;;;;;12.63;7.03;;;4.80;99.90;;;;;;4953491;28;20533;-76
2023/01/18 03:08:05;;;;;;;12.33;7.80;;;4.80;99.90;;;;;;4953618;28;20460;-76
2023/01/18 03:10:34;;;;;;;9.10;6.50;;;4.90;99.90;;;;;;4950210;28;20465;-75
2023/01/18 03:13:08;;;;;;;11.00;8.27;;;4.90;99.90;;;;;;4949834;28;21702;-74
2023/01/18 03:15:47;;;;;;;11.10;7.17;;;4.80;99.90;;;;;;4954746;28;20860;-74
2023/01/18 03:18:59;;;;;;;11.07;7.67;;;4.80;99.90;;;;;;4952138;28;20469;-74
2023/01/18 03:21:48;;;;;;;14.00;8.33;;;4.80;99.90;;;;;;4947366;28;20475;-73
2023/01/18 03:24:15;;;;;;;11.30;8.10;;;4.80;99.90;;;;;;4949513;28;20859;-73
2023/01/18 03:26:47;;;;;;;18.60;9.17;;;4.80;99.90;;;;;;4946433;28;20445;-74
2023/01/18 03:35:13;;;;;;;12.43;8.40;;;4.80;99.90;;;;;;4949854;28;20448;-74
2023/01/18 03:37:44;;;;;;;13.73;9.13;;;4.80;99.90;;;;;;4952641;28;20466;-74
2023/01/18 03:40:17;;;;;;;14.03;9.33;;;4.70;99.90;;;;;;4947426;28;21731;-75
2023/01/18 03:42:58;;;;;;;11.90;8.70;;;4.70;99.90;;;;;;4946407;28;20489;-75
2023/01/18 03:45:40;;;;;;;13.50;8.53;;;4.70;99.90;;;;;;4953646;28;20457;-75
2023/01/18 03:48:07;;;;;;;10.73;8.00;;;4.60;99.90;;;;;;4946504;28;20595;-75
2023/01/18 03:50:52;;;;;;;13.10;8.30;;;4.70;99.90;;;;;;4951779;28;20560;-75
2023/01/18 03:53:31;;;;;;;16.90;8.20;;;4.70;99.90;;;;;;4948080;28;20445;-75
2023/01/18 03:56:03;;;;;;;11.97;8.33;;;4.60;99.90;;;;;;4946818;28;20460;-75
2023/01/18 03:58:35;;;;;;;11.33;7.70;;;4.60;99.90;;;;;;4943431;28;20477;-74
2023/01/18 04:01:04;;;;;;;13.83;7.53;;;4.60;99.90;;;;;;4950824;28;20576;-73
2023/01/18 04:03:33;;;;;;;12.90;8.03;;;4.50;99.90;;;;;;4950198;28;20498;-74
2023/01/18 04:06:01;;;;;;;11.90;7.60;;;4.50;99.90;;;;;;4952229;28;20472;-73
2023/01/18 04:08:27;;;;;;;10.83;8.10;;;4.30;99.90;;;;;;4949551;28;20446;-73
2023/01/18 04:10:52;;;;;;;8.83;7.40;;;4.40;99.90;;;;;;4947668;28;20519;-74
2023/01/18 04:13:18;;;;;;;12.70;7.67;;;4.30;99.90;;;;;;4947399;28;20583;-74
2023/01/18 04:15:43;;;;;;;10.20;7.20;;;4.30;99.90;;;;;;4949563;28;20195;-73
2023/01/18 04:18:09;;;;;;;14.23;8.40;;;4.40;99.90;;;;;;4948468;28;20225;-73
2023/01/18 04:20:35;;;;;;;14.73;8.17;;;4.30;99.90;;;;;;4950258;28;20202;-73
2023/01/18 04:23:00;;;;;;;9.97;7.70;;;4.20;99.90;;;;;;4950977;28;20553;-71
2023/01/18 04:25:26;;;;;;;11.47;7.50;;;4.10;99.90;;;;;;4949232;28;20745;-72
2023/01/18 04:27:51;;;;;;;11.07;7.07;;;4.20;99.90;;;;;;4948350;28;20598;-71
2023/01/18 04:30:17;;;;;;;11.33;7.67;;;4.10;99.90;;;;;;4950652;28;20690;-71
2023/01/18 04:32:45;;;;;;;12.30;8.63;;;4.20;99.90;;;;;;4949095;28;20198;-71
2023/01/18 04:35:11;;;;;;;11.20;7.53;;;4.20;99.90;;;;;;4950281;28;20807;-71
2023/01/18 04:37:37;;;;;;;11.53;7.70;;;4.20;99.90;;;;;;4947934;28;20509;-72
2023/01/18 04:40:04;;;;;;;10.43;8.00;;;4.20;99.90;;;;;;4951523;28;20524;-73
2023/01/18 04:42:30;;;;;;;13.07;9.30;;;4.20;99.90;;;;;;4947163;28;20522;-74
2023/01/18 04:44:55;;;;;;;12.07;8.47;;;4.20;99.90;;;;;;4943986;28;20452;-74
2023/01/18 04:47:21;;;;;;;13.67;8.53;;;4.10;99.90;;;;;;4948365;28;20673;-73
2023/01/18 04:49:47;;;;;;;11.20;8.30;;;4.20;99.90;;;;;;4949791;28;20264;-73
2023/01/18 04:52:12;;;;;;;10.83;8.00;;;4.20;99.90;;;;;;4945075;28;20527;-72
2023/01/18 04:54:38;;;;;;;11.87;7.57;;;4.30;99.90;;;;;;4959872;28;20214;-71
2023/01/18 04:57:04;;;;;;;10.63;7.60;;;4.20;99.90;;;;;;4947127;28;20207;-72
2023/01/18 04:59:30;;;;;;;10.97;8.13;;;4.20;99.90;;;;;;4946163;28;20206;-72
2023/01/18 05:01:56;;;;;;;11.50;7.93;;;4.20;99.90;;;;;;4951975;28;21151;-71
2023/01/18 05:04:22;;;;;;;14.67;8.00;;;4.20;99.90;;;;;;4951328;28;20214;-74
2023/01/18 05:06:48;;;;;;;12.03;7.40;;;4.10;99.90;;;;;;4954375;28;20186;-72
2023/01/18 05:09:14;;;;;;;12.43;7.30;;;4.10;99.90;;;;;;4950570;28;20197;-72
2023/01/18 05:11:40;;;;;;;10.57;7.73;;;4.20;99.90;;;;;;4954417;28;20470;-70
2023/01/18 05:14:05;;;;;;;9.10;7.93;;;4.20;99.90;;;;;;4947229;28;20233;-72
2023/01/18 05:16:31;;;;;;;12.80;7.17;;;4.20;99.90;;;;;;4954419;28;20454;-73
2023/01/18 05:18:57;;;;;;;9.40;6.57;;;4.20;99.90;;;;;;4950080;28;20190;-73
2023/01/18 05:21:22;;;;;;;12.10;7.60;;;4.20;99.90;;;;;;4946547;28;20222;-71
2023/01/18 05:23:48;;;;;;;8.73;6.60;;;4.30;99.90;;;;;;4952678;28;20190;-71
2023/01/18 05:26:20;;;;;;;9.20;6.77;;;4.30;99.90;;;;;;4950083;28;20182;-72
2023/01/18 05:28:46;;;;;;;11.00;6.10;;;4.30;99.90;;;;;;4960609;28;20190;-73
2023/01/18 05:31:13;;;;;;;7.90;5.40;;;4.30;99.90;;;;;;4951933;28;20478;-74
2023/01/18 05:33:39;;;;;;;10.47;6.60;;;4.30;99.90;;;;;;4950052;28;20453;-74
2023/01/18 05:36:05;;;;;;;9.17;6.27;;;4.30;99.90;;;;;;4946597;28;20454;-74
2023/01/18 05:38:31;;;;;;;7.00;5.90;;;4.30;99.90;;;;;;4950836;28;20214;-74
2023/01/18 05:40:56;;;;;;;11.37;6.67;;;4.30;99.90;;;;;;4945149;28;20480;-73
2023/01/18 05:43:24;;;;;;;9.03;6.40;;;4.30;99.90;;;;;;4949018;28;20205;-76
2023/01/18 05:45:50;;;;;;;7.10;5.97;;;4.30;99.90;;;;;;4948302;28;20206;-74
2023/01/18 05:48:17;;;;;;;11.70;6.37;;;4.30;99.90;;;;;;4949944;28;20445;-73
2023/01/18 05:50:44;;;;;;;14.27;7.30;;;4.30;99.90;;;;;;4944484;28;20765;-74
2023/01/18 05:53:10;;;;;;;11.37;6.07;;;4.20;99.90;;;;;;4953363;28;20516;-75
2023/01/18 05:55:36;;;;;;;6.70;5.10;;;4.30;99.90;;;;;;4952926;28;20449;-72
2023/01/18 05:58:01;;;;;;;7.80;6.20;;;4.30;99.90;;;;;;4945552;28;20474;-75
2023/01/18 06:00:27;;;;;;;9.63;6.77;;;4.30;99.90;;;;;;4955808;28;20263;-74
2023/01/18 06:02:53;;;;;;;6.37;4.83;;;4.30;99.90;;;;;;4947611;28;20187;-75
2023/01/18 06:05:20;;;;;;;9.43;6.20;;;4.20;99.90;;;;;;4945374;28;20322;-75
2023/01/18 06:07:49;;;;;;;6.90;5.50;;;4.20;99.90;;;;;;4951672;28;20442;-75
2023/01/18 06:10:15;;;;;;;7.97;6.03;;;4.20;99.90;;;;;;4947452;28;20886;-73
2023/01/18 06:12:41;;;;;;;10.07;6.50;;;4.20;99.90;;;;;;4949702;28;20441;-72
2023/01/18 06:15:08;;;;;;;10.10;6.10;;;4.20;99.90;;;;;;4947681;28;20836;-72
2023/01/18 06:17:35;;;;;;;8.70;5.47;;;4.20;99.90;;;;;;4953325;28;20545;-73
2023/01/18 06:20:01;;;;;;;8.97;5.80;;;4.10;99.90;;;;;;4945764;28;20876;-72
2023/01/18 06:22:26;;;;;;;9.87;5.73;;;4.00;99.90;;;;;;4956430;28;20439;-73
2023/01/18 06:24:52;;;;;;;9.63;6.60;;;4.10;99.90;;;;;;4948269;28;20441;-73
2023/01/18 06:27:17;;;;;;;8.73;6.30;;;4.10;99.90;;;;;;4953876;28;20210;-72
2023/01/18 06:29:43;;;;;;;10.37;5.80;;;4.10;99.90;;;;;;4949703;28;20186;-71
2023/01/18 06:32:09;;;;;;;7.77;5.40;;;4.10;99.90;;;;;;4953113;28;20246;-71
2023/01/18 06:34:35;;;;;;;9.33;5.63;;;4.10;99.90;;;;;;4951971;28;20595;-71
2023/01/18 06:37:01;;;;;;;8.57;6.17;;;4.10;99.90;;;;;;4948827;28;20214;-72
2023/01/18 06:39:27;;;;;;;9.03;6.47;;;4.00;99.90;;;;;;4949682;28;20501;-71
2023/01/18 06:41:53;;;;;;;7.63;6.10;;;3.90;99.90;;;;;;4948540;28;20442;-71
2023/01/18 06:44:18;;;;;;;11.30;5.80;;;4.00;99.90;;;;;;4953634;28;20445;-71
2023/01/18 06:46:45;;;;;;;6.77;5.90;;;4.00;99.90;;;;;;4951799;28;20650;-72
2023/01/18 06:49:11;;;;;;;10.73;6.50;;;4.10;99.90;;;;;;4949769;28;20677;-74
2023/01/18 06:51:37;;;;;;;9.27;7.07;;;4.10;99.90;;;;;;4944681;28;20465;-75
2023/01/18 06:54:03;;;;;;;7.93;5.90;;;4.10;99.90;;;;;;4939171;28;22132;-74
2023/01/18 06:56:29;;;;;;;7.73;5.90;;;4.20;99.90;;;;;;4938205;28;21387;-74
2023/01/18 06:58:57;;;;;;;8.27;5.97;;;4.20;99.90;;;;;;4940606;28;20186;-73
2023/01/18 07:01:24;;;;;;;10.60;6.30;;;4.10;99.90;;;;;;4952089;28;20211;-75
2023/01/18 07:03:49;;;;;;;8.83;6.73;;;4.10;99.90;;;;;;4951193;28;20518;-73
2023/01/18 07:06:15;;;;;;;9.20;7.17;;;4.10;99.90;;;;;;4956370;28;20533;-74
2023/01/18 07:08:41;;;;;;;9.47;6.60;;;4.10;99.90;;;;;;4950609;28;20198;-73
2023/01/18 07:11:09;;;;;;;7.77;6.83;;;4.20;99.90;;;;;;4945024;28;20206;-74
2023/01/18 07:13:38;;;;;;;9.67;6.10;;;4.20;99.90;;;;;;4951947;28;20229;-74
2023/01/18 07:16:05;;;;;;;7.63;5.50;;;4.20;99.90;;;;;;4951174;28;20505;-74
2023/01/18 07:18:31;;;;;;;9.97;6.13;;;4.20;99.90;;;;;;4946663;28;20465;-73
2023/01/18 07:21:01;;;;;;;10.47;7.07;;;4.10;99.90;;;;;;4952169;28;20467;-73
2023/01/18 07:23:28;;;;;;;10.30;6.60;;;4.10;99.90;;;;;;4950245;28;20209;-73
2023/01/18 07:26:18;;;;;;;11.80;6.20;;;4.10;99.90;;;;;;4928068;28;20445;-73
2023/01/18 07:28:45;;;;;;;8.83;6.13;;;4.00;99.90;;;;;;4948991;28;20438;-72
2023/01/18 07:31:11;;;;;;;10.17;6.80;;;4.00;99.90;;;;;;4948898;28;21205;-73
2023/01/18 07:33:37;;;;;;;7.70;5.90;;;4.10;99.90;;;;;;4949783;28;20453;-72
2023/01/18 07:36:05;;;;;;;7.63;5.70;;;4.10;99.90;;;;;;4949142;28;20308;-72
2023/01/18 07:38:31;;;;;;;9.20;6.27;;;4.10;99.90;;;;;;4953328;28;20228;-74
2023/01/18 07:41:01;;;;;;;9.23;6.80;;;4.00;99.90;;;;;;4948510;28;20461;-73
2023/01/18 07:43:28;;;;;;;8.90;6.47;;;4.10;99.90;;;;;;4949727;28;20818;-72
2023/01/18 07:45:56;;;;;;;10.40;5.87;;;4.20;99.90;;;;;;4941848;28;20465;-72
2023/01/18 07:48:22;;;;;;;7.90;6.30;;;4.20;99.90;;;;;;4950260;28;21013;-73
2023/01/18 07:51:02;;;;;;;7.63;6.20;;;4.00;99.90;;;;;;4950883;28;20477;-73
2023/01/18 07:53:29;;;;;;;6.70;5.93;;;4.10;99.90;;;;;;4950734;28;20221;-74
2023/01/18 07:55:58;;;;;;;8.70;5.60;;;4.20;99.90;;;;;;4945054;28;20457;-72
2023/01/18 07:58:24;;;;;;;12.23;6.83;;;4.30;99.90;;;;;;4950969;28;20473;-71
2023/01/18 08:00:49;;;;;;;9.17;7.10;;;4.20;99.90;;;;;;4949115;28;20492;-70
2023/01/18 08:03:17;;;;;;;9.27;6.60;;;4.20;99.90;;;;;;4952170;28;20210;-72
2023/01/18 08:05:44;;;;;;;14.13;9.10;;;4.10;99.90;;;;;;4952615;28;20721;-72
2023/01/18 08:08:11;;;;;;;12.90;8.60;;;4.10;99.90;;;;;;4955582;28;20460;-72
2023/01/18 08:10:38;;;;;;;20.63;11.10;;;4.10;99.90;;;;;;4954358;28;20442;-72
2023/01/18 08:13:05;;;;;;;16.30;10.37;;;4.10;99.90;;;;;;4951680;28;20453;-72
2023/01/18 08:15:31;;;;;;;16.00;9.43;;;4.10;99.90;;;;;;4952788;28;20432;-72
2023/01/18 08:18:00;;;;;;;13.30;8.60;;;4.10;99.90;;;;;;4949933;28;20473;-71
2023/01/18 08:20:26;;;;;;;10.50;8.63;;;4.00;99.90;;;;;;4955582;28;20466;-72
2023/01/18 08:22:56;;;;;;;9.20;6.93;;;4.10;99.90;;;;;;4953821;28;20437;-71
2023/01/18 08:25:23;;;;;;;9.37;6.33;;;4.10;99.90;;;;;;4954092;28;20619;-72
2023/01/18 08:27:49;;;;;;;8.60;6.93;;;4.00;99.90;;;;;;4950847;28;20439;-70
2023/01/18 08:30:15;;;;;;;13.60;6.80;;;4.00;99.90;;;;;;4953641;28;20477;-71
2023/01/18 08:32:40;;;;;;;8.17;6.87;;;4.00;99.90;;;;;;4953125;28;20197;-72
2023/01/18 08:35:07;;;;;;;9.73;6.93;;;4.10;99.90;;;;;;4948896;28;20430;-71
2023/01/18 08:37:32;;;;;;;7.37;6.10;;;4.20;99.90;;;;;;4952388;28;20595;-72
2023/01/18 08:39:58;;;;;;;10.17;7.10;;;4.10;99.90;;;;;;4951679;28;20456;-72
2023/01/18 08:42:23;;;;;;;6.70;5.47;;;4.10;99.90;;;;;;4955674;28;20198;-72
2023/01/18 08:44:49;;;;;;;8.40;6.77;;;4.20;99.90;;;;;;4949637;28;20194;-71
2023/01/18 08:47:14;;;;;;;11.50;7.80;;;4.30;99.90;;;;;;4957118;28;20190;-70
2023/01/18 08:49:41;;;;;;;11.73;7.53;;;4.20;99.90;;;;;;4956999;28;20285;-73
2023/01/18 08:52:09;;;;;;;10.03;7.53;;;4.20;99.90;;;;;;4951151;28;20191;-73
2023/01/18 08:54:35;;;;;;;14.10;8.53;;;4.10;99.90;;;;;;4948010;28;20447;-73
2023/01/18 08:57:01;;;;;;;11.53;8.37;;;4.10;99.90;;;;;;4950496;28;20468;-72
2023/01/18 08:59:27;;;;;;;9.70;7.70;;;4.20;99.90;;;;;;4955218;28;20753;-72
2023/01/18 09:01:52;;;;;;;12.43;8.40;;;4.30;99.90;;;;;;4950201;28;20544;-72
2023/01/18 09:04:18;;;;;;;14.27;8.20;;;4.40;99.90;;;;;;4946700;28;20692;-70
2023/01/18 09:06:45;;;;;;;12.10;7.80;;;4.30;99.90;;;;;;4950881;28;20383;-70
2023/01/18 09:09:11;;;;;;;12.47;8.10;;;4.40;99.90;;;;;;4947643;28;20419;-69
2023/01/18 09:11:37;;;;;;;11.50;8.17;;;4.50;99.90;;;;;;4952175;28;20476;-70
2023/01/18 09:14:02;;;;;;;10.13;7.63;;;4.50;99.90;;;;;;4943143;28;20450;-69
2023/01/18 09:16:29;;;;;;;10.03;7.27;;;4.40;99.90;;;;;;4953626;28;20389;-69
2023/01/18 09:18:55;;;;;;;9.67;7.70;;;4.40;99.90;;;;;;4946782;28;20183;-70
2023/01/18 09:21:21;;;;;;;12.57;8.30;;;4.30;99.90;;;;;;4955567;28;20473;-68
2023/01/18 09:23:48;;;;;;;11.50;8.53;;;4.30;99.90;;;;;;4946241;28;20423;-70
2023/01/18 09:26:19;;;;;;;10.40;8.60;;;4.40;99.90;;;;;;4945881;28;20195;-70
2023/01/18 09:28:51;;;;;;;13.77;8.33;;;4.40;99.90;;;;;;4948844;28;20468;-71
2023/01/18 09:31:21;;;;;;;11.00;7.50;;;4.40;99.90;;;;;;4947787;28;20502;-69
2023/01/18 09:33:47;;;;;;;9.60;8.03;;;4.50;99.90;;;;;;4950215;28;20474;-69
2023/01/18 09:36:13;;;;;;;11.10;7.40;;;4.50;99.90;;;;;;4948626;28;20465;-69
2023/01/18 09:38:41;;;;;;;9.10;7.40;;;4.50;99.90;;;;;;4949881;28;20214;-69
2023/01/18 09:41:27;;;;;;;12.10;7.80;;;4.50;99.90;;;;;;4947678;28;20477;-69
2023/01/18 09:44:06;;;;;;;10.33;8.10;;;4.60;99.90;;;;;;4945849;28;20445;-70
2023/01/18 09:46:35;;;;;;;10.40;8.43;;;4.50;99.90;;;;;;4943484;28;21157;-70
2023/01/18 09:49:03;;;;;;;10.37;8.20;;;4.60;99.90;;;;;;4945933;28;20488;-69
2023/01/18 09:51:30;;;;;;;16.63;8.30;;;4.50;99.90;;;;;;4945603;28;20847;-70
2023/01/18 09:54:22;;;;;;;13.03;9.13;;;4.60;99.90;;;;;;4954416;28;20438;-69
2023/01/18 09:56:56;;;;;;;11.57;8.63;;;4.60;99.90;;;;;;4955477;28;20469;-71
2023/01/18 09:59:58;;;;;;;11.20;7.40;;;4.60;99.90;;;;;;4949375;28;20446;-71
2023/01/18 10:02:31;;;;;;;13.70;9.97;;;4.50;99.90;;;;;;4956581;28;20799;-71
2023/01/18 10:05:14;;;;;;;11.40;8.50;;;4.50;99.90;;;;;;4955848;28;20418;-70
2023/01/18 10:08:17;;;;;;;11.93;8.50;;;4.50;99.90;;;;;;4954307;28;20581;-71
2023/01/18 10:10:51;;;;;;;12.07;8.93;;;4.60;99.90;;;;;;4948680;28;20466;-70
2023/01/18 10:13:31;;;;;;;13.00;9.47;;;4.60;99.90;;;;;;4972970;28;20999;-69
2023/01/18 10:15:57;;;;;;;14.73;10.27;;;4.60;99.90;;;;;;4952222;28;20461;-69
2023/01/18 10:18:23;;;;;;;18.90;10.90;;;4.60;99.90;;;;;;4952214;28;20891;-70
2023/01/18 10:21:00;;;;;;;16.33;10.70;;;4.70;99.90;;;;;;4952567;28;20237;-70
2023/01/18 10:23:44;;;;;;;15.77;9.57;;;4.60;99.90;;;;;;4955722;28;20417;-69
2023/01/18 10:26:20;;;;;;;13.77;10.07;;;4.80;99.90;;;;;;4950963;28;20491;-69
2023/01/18 10:29:11;;;;;;;13.20;8.87;;;4.80;99.90;;;;;;4950432;28;20417;-69
2023/01/18 10:31:56;;;;;;;14.90;10.63;;;4.90;99.90;;;;;;4953217;28;21019;-69
2023/01/18 10:34:28;;;;;;;14.57;10.00;;;5.00;99.90;;;;;;4954689;28;20426;-70
2023/01/18 10:37:01;;;;;;;12.33;9.70;;;5.00;99.90;;;;;;4943995;28;20480;-69
2023/01/18 10:39:49;;;;;;;12.83;10.27;;;5.00;99.90;;;;;;4950179;28;20623;-71
2023/01/18 10:42:28;;;;;;;18.60;9.67;;;5.10;99.90;;;;;;4951585;28;20434;-70
2023/01/18 10:44:54;;;;;;;13.67;10.13;;;5.10;99.90;;;;;;4950487;28;20675;-71
2023/01/18 10:47:20;;;;;;;13.87;10.10;;;5.20;99.90;;;;;;4950646;28;20436;-70
2023/01/18 10:49:49;;;;;;;15.17;10.23;;;5.20;99.90;;;;;;4953830;28;20504;-69
2023/01/18 10:52:29;;;;;;;13.23;10.40;;;5.30;99.90;;;;;;4954561;28;21634;-70
2023/01/18 10:55:06;;;;;;;12.10;10.10;;;5.20;99.90;;;;;;4954158;28;20431;-69
2023/01/18 10:57:53;;;;;;;14.97;10.03;;;5.10;99.90;;;;;;4954958;28;20474;-70
2023/01/18 11:00:41;;;;;;;14.47;9.57;;;5.20;99.90;;;;;;4951031;28;20454;-69
2023/01/18 11:03:13;;;;;;;14.53;9.67;;;5.40;99.90;;;;;;4954775;28;20542;-70
2023/01/18 11:05:44;;;;;;;11.30;8.80;;;5.50;99.90;;;;;;4956688;28;21121;-70
2023/01/18 11:08:32;;;;;;;14.63;9.10;;;5.50;99.90;;;;;;4950807;28;20446;-70
2023/01/18 11:11:13;;;;;;;10.27;7.27;;;5.50;99.90;;;;;;4955556;28;20458;-69
2023/01/18 11:13:43;;;;;;;7.30;4.93;;;5.70;99.90;;;;;;4954764;28;20436;-69
2023/01/18 11:16:14;;;;;;;6.97;4.77;;;5.90;99.90;;;;;;4954336;28;20446;-70
2023/01/18 11:19:00;;;;;;;5.90;4.90;;;5.80;99.90;;;;;;4955348;28;20573;-69
2023/01/18 11:21:48;;;;;;;5.70;4.30;;;5.80;99.90;;;;;;4956430;28;21017;-70
2023/01/18 11:24:28;;;;;;;5.37;3.47;;;5.90;99.90;;;;;;4948153;28;20452;-69
2023/01/18 11:27:01;;;;;;;5.57;4.23;;;6.00;99.90;;;;;;4947938;28;20431;-70
2023/01/18 11:29:33;;;;;;;7.00;3.60;;;6.00;99.90;;;;;;4955226;28;20541;-68
2023/01/18 11:32:14;;;;;;;4.03;3.27;;;6.20;99.90;;;;;;4952739;28;20995;-69
2023/01/18 11:34:45;;;;;;;8.57;3.93;;;6.30;99.90;;;;;;4953343;28;20565;-70
2023/01/18 11:37:33;;;;;;;4.50;3.30;;;6.30;99.90;;;;;;4948307;28;21445;-69
2023/01/18 11:40:19;;;;;;;6.60;4.50;;;6.30;99.90;;;;;;4962118;28;22858;-69
2023/01/18 11:42:46;;;;;;;4.83;3.70;;;6.30;99.90;;;;;;4954682;28;20438;-70
2023/01/18 11:45:34;;;;;;;9.87;4.10;;;6.50;99.90;;;;;;4948096;28;20484;-70
2023/01/18 11:48:25;;;;;;;6.37;3.77;;;6.40;99.90;;;;;;4948487;28;20430;-70
2023/01/18 11:50:59;;;;;;;6.90;3.60;;;6.60;99.90;;;;;;4950158;28;20576;-69
2023/01/18 11:53:58;;;;;;;6.50;3.60;;;6.50;99.90;;;;;;4953017;28;20460;-70
2023/01/18 11:56:39;;;;;;;5.50;3.50;;;6.50;99.90;;;;;;4948943;28;20853;-69
2023/01/18 11:59:20;;;;;;;6.13;3.80;;;6.60;99.90;;;;;;4967258;28;21278;-68
2023/01/18 12:02:07;;;;;;;5.27;3.80;;;6.60;99.90;;;;;;4954549;28;20961;-69
2023/01/18 12:05:14;;;;;;;5.43;3.73;;;6.60;99.90;;;;;;4954353;28;20767;-70
2023/01/18 12:08:02;;;;;;;5.77;3.57;;;6.30;99.90;;;;;;4952160;28;20457;-69
2023/01/18 12:10:43;;;;;;;5.73;3.80;;;6.40;99.90;;;;;;4955821;28;20454;-69
2023/01/18 12:13:21;;;;;;;6.57;3.60;;;6.50;99.90;;;;;;4948511;28;20418;-69
2023/01/18 12:16:18;;;;;;;5.70;3.50;;;6.40;99.90;;;;;;4951474;28;20460;-70
2023/01/18 12:19:15;;;;;;;4.60;3.53;;;6.50;99.90;;;;;;4951868;28;20474;-70
2023/01/18 12:21:49;;;;;;;5.73;3.60;;;6.70;99.90;;;;;;4944258;28;20461;-69
2023/01/18 12:24:21;;;;;;;5.50;3.90;;;6.80;99.90;;;;;;4948329;28;20479;-68
2023/01/18 12:26:55;;;;;;;4.17;3.57;;;6.90;99.90;;;;;;4950489;28;20434;-68
2023/01/18 12:29:47;;;;;;;6.53;3.37;;;6.70;99.90;;;;;;4951980;28;21200;-69
2023/01/18 12:32:34;;;;;;;4.47;3.53;;;6.70;99.90;;;;;;4949178;28;20566;-69
2023/01/18 12:35:14;;;;;;;5.97;3.90;;;6.80;99.90;;;;;;4947136;28;21812;-67
2023/01/18 12:38:14;;;;;;;4.97;3.87;;;6.80;99.90;;;;;;4953405;28;21207;-69
2023/01/18 12:40:54;;;;;;;8.00;4.00;;;6.80;99.90;;;;;;4949730;28;20456;-68
2023/01/18 12:43:33;;;;;;;6.17;4.30;;;6.80;99.90;;;;;;4949607;28;20420;-69
2023/01/18 12:46:09;;;;;;;4.30;3.63;;;6.90;99.90;;;;;;4950978;28;20437;-68
2023/01/18 12:48:47;;;;;;;6.00;4.10;;;7.00;99.90;;;;;;4960622;28;20513;-68
2023/01/18 12:51:17;;;;;;;9.07;3.93;;;6.90;99.90;;;;;;4947036;28;20994;-68
2023/01/18 12:53:54;;;;;;;6.30;4.23;;;6.90;99.90;;;;;;4947849;28;20855;-68
2023/01/18 12:56:38;;;;;;;7.00;3.77;;;6.90;99.90;;;;;;4951633;28;20441;-67
2023/01/18 12:59:09;;;;;;;6.13;3.50;;;6.80;99.90;;;;;;4947154;28;20473;-68
2023/01/18 13:01:41;;;;;;;9.00;3.70;;;6.80;99.90;;;;;;4950946;28;21252;-69
2023/01/18 13:04:41;;;;;;;4.93;3.70;;;6.80;99.90;;;;;;4946623;28;20442;-68
2023/01/18 13:07:13;;;;;;;4.83;3.50;;;6.70;99.90;;;;;;4945234;28;20454;-68
2023/01/18 13:09:47;;;;;;;6.10;3.50;;;6.70;99.90;;;;;;4951032;28;20544;-71
2023/01/18 13:12:13;;;;;;;5.63;3.20;;;6.60;99.90;;;;;;4952343;28;20532;-68
2023/01/18 13:15:12;;;;;;;6.83;3.50;;;6.60;99.90;;;;;;4951559;28;20989;-69
2023/01/18 13:17:48;;;;;;;5.27;3.83;;;6.80;99.90;;;;;;4947710;28;20198;-69
2023/01/18 13:20:21;;;;;;;6.77;3.70;;;6.90;99.90;;;;;;4949088;28;20457;-68
2023/01/18 13:23:01;;;;;;;6.47;4.47;;;7.00;99.90;;;;;;4953264;28;20457;-69
2023/01/18 13:25:30;;;;;;;6.73;3.40;;;7.10;99.90;;;;;;4954358;28;20474;-69
2023/01/18 13:27:59;;;;;;;3.20;2.90;;;7.40;99.90;;;;;;4953817;28;20448;-69
2023/01/18 13:30:26;;;;;;;5.83;3.40;;;7.80;99.90;;;;;;4949609;28;20462;-70
2023/01/18 13:32:52;;;;;;;5.07;3.20;;;8.30;99.90;;;;;;4950355;28;20813;-69
2023/01/18 13:35:32;;;;;;;4.33;3.30;;;8.30;99.90;;;;;;4943193;28;20449;-69
2023/01/18 13:38:12;;;;;;;6.20;3.73;;;8.30;99.90;;;;;;4951161;28;20458;-68
2023/01/18 13:40:50;;;;;;;4.80;3.63;;;8.20;99.90;;;;;;4949459;28;20876;-68
2023/01/18 13:43:55;;;;;;;5.70;3.00;;;8.30;99.90;;;;;;4951806;28;20425;-69